Time;durP1;ratioP1;P1;durP2;ratioP2;P2;SDS_P1;SDS_P2;PMS_P1;PMS_P2;Temp;Humidity;BMP_temperature;BMP_pressure;BME280_temperature;BME280_humidity;BME280_pressure;Samples;Min_cycle;Max_cycle;Signal;HPM_P1;HPM_P2
2022/06/29 00:01:29;;;;;;;6.40;5.70;;;19.70;99.90;;;;;;7358502;19;20420;-40
2022/06/29 00:04:01;;;;;;;6.27;5.30;;;19.80;99.90;;;;;;7365675;19;21032;-40
2022/06/29 00:06:31;;;;;;;5.50;5.00;;;19.90;99.90;;;;;;7344102;19;21043;-40
2022/06/29 00:09:00;;;;;;;6.00;5.50;;;19.90;99.90;;;;;;7349277;19;20888;-40
2022/06/29 00:11:30;;;;;;;6.27;5.07;;;19.80;99.90;;;;;;7366233;19;20395;-44
2022/06/29 00:14:00;;;;;;;5.60;5.10;;;19.80;99.90;;;;;;7364999;19;20392;-43
2022/06/29 00:16:29;;;;;;;6.30;5.23;;;19.80;99.90;;;;;;7367633;19;20371;-44
2022/06/29 00:19:04;;;;;;;6.00;5.40;;;19.70;99.90;;;;;;7364726;19;20950;-44
2022/06/29 00:21:34;;;;;;;6.50;5.90;;;19.60;99.90;;;;;;7362431;19;20372;-43
2022/06/29 00:24:03;;;;;;;6.37;5.77;;;19.50;99.90;;;;;;7369973;19;20388;-43
2022/06/29 00:26:33;;;;;;;6.30;5.70;;;19.60;99.90;;;;;;7371158;19;20414;-43
2022/06/29 00:29:02;;;;;;;7.00;5.10;;;19.70;99.90;;;;;;7367690;19;20919;-43
2022/06/29 00:31:32;;;;;;;7.23;6.20;;;19.70;99.90;;;;;;7369643;19;20379;-45
2022/06/29 00:34:04;;;;;;;5.70;5.27;;;19.70;99.90;;;;;;7375326;19;20388;-43
2022/06/29 00:36:34;;;;;;;6.03;5.43;;;19.60;99.90;;;;;;7371672;19;20383;-43
2022/06/29 00:39:03;;;;;;;6.80;5.53;;;19.60;99.90;;;;;;7369606;19;20376;-44
2022/06/29 00:41:40;;;;;;;5.63;5.20;;;19.60;99.90;;;;;;7368052;19;20782;-40
2022/06/29 00:44:10;;;;;;;5.27;4.77;;;19.40;99.90;;;;;;7374912;19;20528;-40
2022/06/29 00:46:45;;;;;;;6.33;5.57;;;19.50;99.90;;;;;;7358295;19;20416;-40
2022/06/29 00:49:21;;;;;;;6.57;5.30;;;19.60;99.90;;;;;;7358076;19;20427;-40
2022/06/29 00:51:53;;;;;;;6.13;5.50;;;19.50;99.90;;;;;;7360236;19;20413;-40
2022/06/29 00:54:25;;;;;;;5.80;5.30;;;19.40;99.90;;;;;;7370894;19;20398;-41
2022/06/29 00:56:54;;;;;;;5.23;4.37;;;19.60;99.90;;;;;;7362043;19;20408;-40
2022/06/29 00:59:25;;;;;;;6.00;5.50;;;19.70;99.90;;;;;;7376460;19;20372;-40
2022/06/29 01:01:57;;;;;;;5.37;4.87;;;19.60;99.90;;;;;;7361763;19;20853;-40
2022/06/29 01:04:30;;;;;;;5.77;5.27;;;19.50;99.90;;;;;;7366983;19;20387;-40
2022/06/29 01:07:01;;;;;;;5.90;5.30;;;19.50;99.90;;;;;;7366463;19;21317;-41
2022/06/29 01:09:31;;;;;;;6.30;5.80;;;19.40;99.90;;;;;;7374971;19;20380;-40
2022/06/29 01:12:02;;;;;;;6.00;5.50;;;19.20;99.90;;;;;;7368397;19;20375;-40
2022/06/29 01:14:31;;;;;;;5.33;4.83;;;19.20;99.90;;;;;;7370555;19;20702;-40
2022/06/29 01:17:01;;;;;;;5.80;5.30;;;19.10;99.90;;;;;;7372091;19;20380;-40
2022/06/29 01:19:33;;;;;;;5.87;5.37;;;19.10;99.90;;;;;;7366337;19;20396;-40
2022/06/29 01:22:10;;;;;;;6.13;5.53;;;19.40;99.90;;;;;;7367874;19;20377;-39
2022/06/29 01:24:40;;;;;;;5.17;4.70;;;19.60;99.90;;;;;;7370088;19;20388;-40
2022/06/29 01:27:10;;;;;;;5.67;5.17;;;19.60;99.90;;;;;;7376428;19;20365;-40
2022/06/29 01:29:40;;;;;;;6.50;5.90;;;19.50;99.90;;;;;;7369032;19;20856;-40
2022/06/29 01:32:10;;;;;;;7.57;5.50;;;19.40;99.90;;;;;;7375821;19;20416;-40
2022/06/29 01:34:40;;;;;;;6.23;5.63;;;19.20;99.90;;;;;;7367327;19;20383;-40
2022/06/29 01:37:13;;;;;;;6.17;5.60;;;19.00;99.90;;;;;;7364151;19;20372;-39
2022/06/29 01:39:44;;;;;;;5.97;5.40;;;19.10;99.90;;;;;;7365584;19;20424;-40
2022/06/29 01:42:13;;;;;;;6.53;5.90;;;19.10;99.90;;;;;;7373496;19;20395;-44
2022/06/29 01:44:43;;;;;;;6.50;5.70;;;19.10;99.90;;;;;;7344689;19;20946;-44
2022/06/29 01:47:12;;;;;;;6.17;5.67;;;19.10;99.90;;;;;;7361992;19;21519;-44
2022/06/29 01:49:42;;;;;;;6.10;5.40;;;19.00;99.90;;;;;;7367185;19;20532;-43
2022/06/29 01:52:14;;;;;;;7.10;6.40;;;19.00;99.90;;;;;;7375528;19;20379;-43
2022/06/29 01:54:43;;;;;;;6.70;5.57;;;19.20;99.90;;;;;;7367689;19;20368;-43
2022/06/29 01:57:13;;;;;;;6.13;5.53;;;19.10;99.90;;;;;;7368483;19;20390;-43
2022/06/29 01:59:43;;;;;;;5.93;5.40;;;19.30;99.90;;;;;;7370663;19;20376;-43
2022/06/29 02:02:12;;;;;;;5.47;4.90;;;19.00;99.90;;;;;;7366432;19;20408;-44
2022/06/29 02:04:42;;;;;;;7.80;6.20;;;18.90;99.90;;;;;;7366009;19;20780;-46
2022/06/29 02:07:14;;;;;;;9.73;5.83;;;18.90;99.90;;;;;;7373630;19;20409;-43
2022/06/29 02:09:44;;;;;;;7.13;5.93;;;19.00;99.90;;;;;;7366756;19;20415;-43
2022/06/29 02:12:13;;;;;;;6.13;5.53;;;19.10;99.90;;;;;;7374949;19;20823;-43
2022/06/29 02:14:43;;;;;;;7.20;6.50;;;19.00;99.90;;;;;;7365296;19;20413;-43
2022/06/29 02:17:13;;;;;;;6.80;5.40;;;18.60;99.90;;;;;;7371603;19;20424;-43
2022/06/29 02:19:43;;;;;;;7.13;6.43;;;18.50;99.90;;;;;;7362572;19;20780;-43
2022/06/29 02:22:15;;;;;;;9.50;6.50;;;18.70;99.90;;;;;;7368986;19;20385;-43
2022/06/29 02:24:44;;;;;;;9.33;5.93;;;18.90;99.90;;;;;;7374131;19;21280;-43
2022/06/29 02:27:14;;;;;;;8.67;7.27;;;19.00;99.90;;;;;;7371314;19;20387;-43
2022/06/29 02:29:43;;;;;;;6.97;6.27;;;18.70;99.90;;;;;;7364841;19;20383;-43
2022/06/29 02:34:55;;;;;;;7.30;6.60;;;18.60;99.90;;;;;;7357697;19;20865;-43
2022/06/29 02:37:27;;;;;;;7.07;6.40;;;18.70;99.90;;;;;;7372018;19;20448;-43
2022/06/29 02:39:57;;;;;;;7.13;6.53;;;18.60;99.90;;;;;;7367752;19;21124;-43
2022/06/29 02:42:27;;;;;;;6.60;6.00;;;18.80;99.90;;;;;;7367896;19;20416;-43
2022/06/29 02:44:56;;;;;;;7.47;5.97;;;18.90;99.90;;;;;;7368170;19;20384;-43
2022/06/29 02:47:27;;;;;;;7.63;6.87;;;18.90;99.90;;;;;;7368777;19;20436;-43
2022/06/29 02:49:57;;;;;;;7.43;6.43;;;18.90;99.90;;;;;;7364905;19;20672;-43
2022/06/29 02:52:31;;;;;;;6.63;6.03;;;18.80;99.90;;;;;;7373750;19;20414;-43
2022/06/29 02:55:01;;;;;;;8.80;6.57;;;18.80;99.90;;;;;;7369904;19;20400;-44
2022/06/29 02:57:30;;;;;;;8.13;6.80;;;18.70;99.90;;;;;;7373772;19;20399;-44
2022/06/29 02:59:59;;;;;;;7.47;6.63;;;18.80;99.90;;;;;;7367046;19;20904;-44
2022/06/29 03:02:29;;;;;;;7.77;6.40;;;18.70;99.90;;;;;;7368215;19;21715;-44
2022/06/29 03:05:01;;;;;;;7.37;6.70;;;18.80;99.90;;;;;;7365225;19;20671;-44
2022/06/29 03:07:33;;;;;;;7.50;6.90;;;18.80;99.90;;;;;;7370161;19;21086;-44
2022/06/29 03:10:02;;;;;;;8.23;6.83;;;18.80;99.90;;;;;;7365125;19;20417;-43
2022/06/29 03:12:32;;;;;;;9.30;6.80;;;18.80;99.90;;;;;;7366138;19;21001;-43
2022/06/29 03:15:01;;;;;;;6.50;5.90;;;18.80;99.90;;;;;;7367879;19;20496;-43
2022/06/29 03:17:33;;;;;;;6.57;5.97;;;18.70;99.90;;;;;;7365551;19;21554;-43
2022/06/29 03:20:04;;;;;;;7.07;5.60;;;18.60;99.90;;;;;;7367914;19;20380;-43
2022/06/29 03:22:37;;;;;;;7.37;6.67;;;18.60;99.90;;;;;;7364876;19;20384;-42
2022/06/29 03:25:08;;;;;;;7.20;6.50;;;18.70;99.90;;;;;;7361165;19;20388;-42
2022/06/29 03:27:39;;;;;;;6.80;6.00;;;18.70;99.90;;;;;;7367719;19;20385;-43
2022/06/29 03:30:10;;;;;;;6.90;6.20;;;18.80;99.90;;;;;;7360310;19;20420;-43
2022/06/29 03:32:40;;;;;;;8.37;6.37;;;18.80;99.90;;;;;;7365117;19;20683;-43
2022/06/29 03:35:10;;;;;;;7.57;6.90;;;18.70;99.90;;;;;;7367037;19;20420;-42
2022/06/29 03:37:45;;;;;;;8.70;7.03;;;18.50;99.90;;;;;;7367618;19;20961;-44
2022/06/29 03:40:15;;;;;;;6.87;6.17;;;18.60;99.90;;;;;;7366363;19;20376;-43
2022/06/29 03:42:44;;;;;;;9.93;6.30;;;18.70;99.90;;;;;;7369925;19;20984;-43
2022/06/29 03:45:14;;;;;;;8.43;6.50;;;18.80;99.90;;;;;;7363962;19;20769;-44
2022/06/29 03:47:43;;;;;;;7.60;6.90;;;18.70;99.90;;;;;;7366342;19;20436;-44
2022/06/29 03:50:13;;;;;;;6.93;6.10;;;18.80;99.90;;;;;;7367838;19;20404;-43
2022/06/29 03:52:46;;;;;;;9.83;7.10;;;18.80;99.90;;;;;;7359938;19;20925;-44
2022/06/29 03:55:18;;;;;;;9.67;6.33;;;18.50;99.90;;;;;;7363166;19;20383;-45
2022/06/29 03:57:48;;;;;;;8.53;7.10;;;18.40;99.90;;;;;;7353094;19;20986;-39
2022/06/29 04:00:19;;;;;;;7.27;6.53;;;18.50;99.90;;;;;;7366330;19;20459;-39
2022/06/29 04:02:48;;;;;;;11.73;7.70;;;18.60;99.90;;;;;;7355813;19;20407;-44
2022/06/29 04:05:18;;;;;;;7.10;6.40;;;18.40;99.90;;;;;;7352522;19;20360;-44
2022/06/29 04:07:50;;;;;;;7.73;7.10;;;18.40;99.90;;;;;;7366287;19;20980;-43
2022/06/29 04:10:19;;;;;;;5.63;5.13;;;18.40;99.90;;;;;;7367563;19;20420;-43
2022/06/29 04:12:49;;;;;;;7.23;6.50;;;18.50;99.90;;;;;;7364682;19;20416;-44
2022/06/29 04:15:18;;;;;;;7.07;6.37;;;18.50;99.90;;;;;;7354181;19;20760;-43
2022/06/29 04:17:48;;;;;;;7.17;6.47;;;18.10;99.90;;;;;;7365092;19;20388;-43
2022/06/29 04:23:02;;;;;;;7.80;7.07;;;18.20;99.90;;;;;;7364518;19;20448;-44
2022/06/29 04:25:32;;;;;;;8.10;6.80;;;18.30;99.90;;;;;;7361345;19;20436;-44
2022/06/29 04:28:01;;;;;;;7.80;6.70;;;18.50;99.90;;;;;;7371754;19;20375;-43
2022/06/29 04:30:31;;;;;;;7.03;6.37;;;18.70;99.90;;;;;;7365874;19;21064;-43
2022/06/29 04:33:01;;;;;;;6.67;6.07;;;18.70;99.90;;;;;;7368353;19;20401;-44
2022/06/29 04:35:30;;;;;;;6.63;5.93;;;18.50;99.90;;;;;;7362144;19;20372;-42
2022/06/29 04:38:03;;;;;;;9.97;6.93;;;18.70;99.90;;;;;;7368417;19;20421;-44
2022/06/29 04:40:35;;;;;;;7.27;6.50;;;18.80;99.90;;;;;;7366824;19;20404;-44
2022/06/29 04:43:05;;;;;;;7.43;6.83;;;19.00;99.90;;;;;;7368119;19;20753;-43
2022/06/29 04:48:16;;;;;;;7.77;7.07;;;19.10;99.90;;;;;;7367031;19;20448;-44
2022/06/29 04:50:48;;;;;;;7.87;7.03;;;19.20;99.90;;;;;;7362450;19;20412;-40
2022/06/29 04:53:20;;;;;;;7.47;6.60;;;19.40;99.90;;;;;;7366801;19;20456;-40
2022/06/29 04:55:49;;;;;;;7.73;6.80;;;19.30;99.90;;;;;;7364633;19;20471;-40
2022/06/29 04:58:19;;;;;;;9.70;8.00;;;19.30;99.90;;;;;;7343741;19;20428;-40
2022/06/29 05:00:48;;;;;;;8.00;7.20;;;19.40;99.90;;;;;;7363227;19;20384;-41
2022/06/29 05:03:17;;;;;;;7.17;6.30;;;19.50;99.90;;;;;;7365322;19;20476;-40
2022/06/29 05:05:47;;;;;;;7.10;6.07;;;19.70;99.90;;;;;;7362818;19;20379;-40
2022/06/29 05:08:19;;;;;;;7.97;6.87;;;19.80;99.90;;;;;;7367807;19;20413;-41
2022/06/29 05:10:49;;;;;;;7.20;6.50;;;19.90;99.90;;;;;;7364446;19;20393;-40
2022/06/29 05:13:18;;;;;;;7.73;6.93;;;19.90;99.90;;;;;;7367241;19;20965;-41
2022/06/29 05:15:48;;;;;;;7.70;7.00;;;19.80;99.90;;;;;;7372306;19;20368;-40
2022/06/29 05:18:17;;;;;;;8.33;6.53;;;19.60;99.90;;;;;;7366843;19;20849;-40
2022/06/29 05:20:47;;;;;;;7.63;6.53;;;19.60;99.90;;;;;;7368747;19;20384;-43
2022/06/29 05:23:19;;;;;;;8.67;7.00;;;19.50;99.90;;;;;;7373004;19;20989;-43
2022/06/29 05:25:49;;;;;;;8.93;7.30;;;19.50;99.90;;;;;;7369819;19;20432;-44
2022/06/29 05:28:21;;;;;;;10.20;8.33;;;19.60;99.90;;;;;;7369355;19;20515;-44
2022/06/29 05:30:53;;;;;;;7.47;6.37;;;19.50;99.90;;;;;;7373772;19;20775;-43
2022/06/29 05:33:25;;;;;;;7.20;6.57;;;19.50;99.90;;;;;;7372795;19;20416;-44
2022/06/29 05:35:55;;;;;;;7.97;6.40;;;19.40;99.90;;;;;;7370692;19;20376;-44
2022/06/29 05:38:27;;;;;;;6.70;6.10;;;19.50;99.90;;;;;;7370467;19;20444;-43
2022/06/29 05:40:57;;;;;;;8.03;7.00;;;19.40;99.90;;;;;;7366398;19;20391;-43
2022/06/29 05:43:26;;;;;;;6.83;6.10;;;19.20;99.90;;;;;;7368566;19;20867;-43
2022/06/29 05:45:56;;;;;;;8.53;7.03;;;19.30;99.90;;;;;;7370356;19;20371;-44
2022/06/29 05:48:26;;;;;;;8.90;6.97;;;19.20;99.90;;;;;;7367527;19;20445;-44
2022/06/29 05:50:58;;;;;;;6.73;6.03;;;19.50;99.90;;;;;;7358016;19;20391;-44
2022/06/29 05:53:30;;;;;;;8.80;7.53;;;19.60;99.90;;;;;;7367656;19;20435;-44
2022/06/29 05:55:59;;;;;;;8.30;7.43;;;19.70;99.90;;;;;;7359950;19;20966;-44
2022/06/29 05:58:31;;;;;;;7.57;6.70;;;19.90;99.90;;;;;;7365896;19;20357;-40
2022/06/29 06:01:01;;;;;;;6.37;5.77;;;20.00;99.90;;;;;;7368172;19;21279;-41
2022/06/29 06:03:32;;;;;;;7.57;6.83;;;20.00;99.90;;;;;;7361812;19;20408;-41
2022/06/29 06:06:02;;;;;;;7.00;6.33;;;20.20;99.90;;;;;;7365735;19;20404;-40
2022/06/29 06:08:34;;;;;;;7.20;6.50;;;20.50;99.90;;;;;;7361043;19;20408;-41
2022/06/29 06:11:03;;;;;;;10.50;6.20;;;20.80;99.90;;;;;;7371603;19;20704;-41
2022/06/29 06:13:33;;;;;;;6.23;5.63;;;21.00;99.90;;;;;;7367945;19;20376;-41
2022/06/29 06:16:03;;;;;;;10.67;6.83;;;21.30;99.90;;;;;;7371930;19;20463;-41
2022/06/29 06:18:34;;;;;;;6.47;5.87;;;21.40;99.90;;;;;;7375174;19;21139;-41
2022/06/29 06:21:04;;;;;;;7.87;6.70;;;21.60;99.90;;;;;;7369204;19;20757;-41
2022/06/29 06:23:36;;;;;;;8.10;7.40;;;21.90;99.90;;;;;;7365367;19;20909;-41
2022/06/29 06:26:05;;;;;;;8.83;7.53;;;22.10;99.90;;;;;;7356637;19;20368;-42
2022/06/29 06:28:37;;;;;;;6.50;5.90;;;22.30;99.90;;;;;;7356993;19;21160;-41
2022/06/29 06:31:07;;;;;;;6.80;6.20;;;22.60;99.90;;;;;;7365453;19;20428;-44
2022/06/29 06:33:36;;;;;;;6.83;5.60;;;22.80;99.90;;;;;;7372069;19;20416;-44
2022/06/29 06:36:06;;;;;;;8.30;6.40;;;22.90;99.90;;;;;;7365840;19;20884;-44
2022/06/29 06:38:38;;;;;;;7.40;6.53;;;23.00;99.90;;;;;;7371324;19;20400;-44
2022/06/29 06:43:50;;;;;;;8.53;6.20;;;23.20;99.90;;;;;;7373938;19;20420;-44
2022/06/29 06:46:20;;;;;;;6.73;6.03;;;23.30;99.90;;;;;;7371613;19;20852;-43
2022/06/29 06:48:50;;;;;;;11.30;6.77;;;23.30;99.90;;;;;;7358091;19;20373;-44
2022/06/29 06:51:24;;;;;;;7.30;6.60;;;23.50;99.70;;;;;;7374182;19;20372;-44
2022/06/29 06:53:56;;;;;;;6.10;5.50;;;23.60;99.30;;;;;;7366905;19;20930;-44
2022/06/29 06:56:28;;;;;;;8.33;6.27;;;23.70;97.70;;;;;;7375542;19;20936;-45
2022/06/29 06:58:57;;;;;;;6.63;6.03;;;23.70;98.30;;;;;;7363912;19;20871;-45
2022/06/29 07:01:27;;;;;;;6.53;5.93;;;23.90;97.70;;;;;;7371245;19;20795;-44
2022/06/29 07:03:56;;;;;;;6.30;5.70;;;24.00;97.30;;;;;;7371580;19;21135;-45
2022/06/29 07:06:26;;;;;;;10.57;6.73;;;24.00;96.70;;;;;;7373707;19;20379;-45
2022/06/29 07:08:58;;;;;;;6.60;5.50;;;24.20;96.20;;;;;;7367740;19;20416;-45
2022/06/29 07:11:30;;;;;;;10.87;6.00;;;24.20;95.80;;;;;;7369460;19;20411;-44
2022/06/29 07:13:59;;;;;;;9.40;5.57;;;24.40;95.10;;;;;;7374136;19;20396;-45
2022/06/29 07:16:29;;;;;;;8.73;5.60;;;24.30;94.60;;;;;;7367819;19;20416;-44
2022/06/29 07:18:58;;;;;;;7.33;5.80;;;24.50;94.10;;;;;;7370424;19;20393;-45
2022/06/29 07:21:33;;;;;;;5.60;5.00;;;24.60;93.70;;;;;;7369841;19;20479;-45
2022/06/29 07:24:06;;;;;;;7.83;5.53;;;24.70;93.50;;;;;;7363561;19;20443;-44
2022/06/29 07:26:36;;;;;;;7.73;5.07;;;24.90;93.30;;;;;;7371220;19;20372;-45
2022/06/29 07:29:05;;;;;;;6.80;6.20;;;25.00;92.90;;;;;;7374276;19;20368;-45
2022/06/29 07:31:35;;;;;;;8.83;5.80;;;25.10;92.00;;;;;;7370605;19;20408;-41
2022/06/29 07:34:04;;;;;;;6.27;5.03;;;25.10;92.00;;;;;;7367065;19;20364;-42
2022/06/29 07:36:34;;;;;;;5.80;5.30;;;25.20;91.60;;;;;;7375316;19;20857;-45
2022/06/29 07:39:06;;;;;;;9.43;5.87;;;25.30;91.40;;;;;;7370518;19;21255;-41
2022/06/29 07:41:36;;;;;;;7.53;6.30;;;24.90;92.60;;;;;;7372380;19;20376;-41
2022/06/29 07:44:06;;;;;;;6.83;6.17;;;24.90;93.20;;;;;;7369607;19;20380;-42
2022/06/29 07:46:36;;;;;;;8.80;5.90;;;24.90;93.20;;;;;;7367369;19;20416;-41
2022/06/29 07:49:06;;;;;;;6.90;5.27;;;24.80;92.60;;;;;;7368187;19;20404;-41
2022/06/29 07:51:36;;;;;;;6.60;5.43;;;24.80;93.40;;;;;;7373025;19;20376;-41
2022/06/29 07:54:08;;;;;;;6.37;5.50;;;25.10;93.50;;;;;;7366193;19;20404;-41
2022/06/29 07:56:38;;;;;;;6.33;4.53;;;25.20;92.70;;;;;;7355135;19;20371;-42
2022/06/29 07:59:07;;;;;;;5.83;5.23;;;25.30;92.30;;;;;;7362562;19;20367;-42
2022/06/29 08:01:37;;;;;;;5.23;4.73;;;25.50;91.30;;;;;;7372225;19;20384;-44
2022/06/29 08:04:06;;;;;;;5.87;4.97;;;25.80;90.60;;;;;;7364268;19;20423;-44
2022/06/29 08:06:36;;;;;;;5.23;4.83;;;26.00;89.60;;;;;;7366950;19;20768;-44
2022/06/29 08:09:08;;;;;;;8.53;5.33;;;26.10;88.70;;;;;;7370558;19;20404;-45
2022/06/29 08:11:38;;;;;;;5.60;5.07;;;26.20;89.30;;;;;;7370269;19;20391;-44
2022/06/29 08:14:07;;;;;;;7.90;5.30;;;26.40;86.30;;;;;;7370714;19;20488;-44
2022/06/29 08:16:39;;;;;;;6.20;5.20;;;26.00;87.50;;;;;;7367313;19;20383;-44
2022/06/29 08:19:09;;;;;;;5.10;4.57;;;26.20;88.30;;;;;;7359912;19;20398;-44
2022/06/29 08:21:38;;;;;;;4.83;4.43;;;26.40;86.40;;;;;;7362335;19;20384;-44
2022/06/29 08:24:13;;;;;;;6.60;4.70;;;26.50;83.80;;;;;;7368662;19;21441;-45
2022/06/29 08:26:43;;;;;;;7.60;5.17;;;26.60;84.20;;;;;;7358060;19;20420;-45
2022/06/29 08:29:15;;;;;;;6.30;4.77;;;26.60;79.40;;;;;;7368644;19;20412;-45
2022/06/29 08:31:45;;;;;;;5.30;4.90;;;26.70;80.00;;;;;;7353481;19;20384;-45
2022/06/29 08:34:15;;;;;;;4.30;4.00;;;27.00;80.00;;;;;;7356823;19;20380;-42
2022/06/29 08:36:44;;;;;;;4.80;4.40;;;27.30;79.00;;;;;;7367564;19;20360;-42
2022/06/29 08:39:17;;;;;;;7.40;6.00;;;27.50;76.00;;;;;;7369934;19;20364;-42
2022/06/29 08:41:48;;;;;;;8.87;4.70;;;27.30;75.00;;;;;;7358235;19;20388;-45
2022/06/29 08:44:19;;;;;;;5.20;4.73;;;27.60;75.50;;;;;;7359507;19;20395;-46
2022/06/29 08:46:48;;;;;;;5.00;4.50;;;28.00;72.60;;;;;;7348589;19;21490;-45
2022/06/29 08:49:18;;;;;;;7.80;5.27;;;28.40;70.00;;;;;;7372877;19;20404;-45
2022/06/29 08:51:48;;;;;;;4.90;4.30;;;28.60;68.60;;;;;;7379596;19;20423;-45
2022/06/29 08:54:21;;;;;;;5.33;4.83;;;29.00;67.90;;;;;;7367370;19;20454;-46
2022/06/29 08:56:51;;;;;;;6.20;4.83;;;29.20;65.50;;;;;;7368553;19;20932;-45
2022/06/29 08:59:22;;;;;;;5.70;5.07;;;29.20;64.20;;;;;;7368398;19;22485;-45
2022/06/29 09:01:53;;;;;;;3.77;3.47;;;29.00;64.20;;;;;;7363592;19;20673;-46
2022/06/29 09:04:22;;;;;;;4.63;4.23;;;29.00;64.40;;;;;;7372970;19;20416;-41
2022/06/29 09:06:56;;;;;;;5.10;4.53;;;29.40;63.80;;;;;;7370752;19;21540;-42
2022/06/29 09:09:28;;;;;;;4.90;4.50;;;29.30;62.90;;;;;;7364580;19;20387;-41
2022/06/29 09:11:58;;;;;;;4.70;4.30;;;29.50;62.50;;;;;;7378324;19;20375;-45
2022/06/29 09:14:33;;;;;;;8.33;4.97;;;29.80;59.50;;;;;;7375297;19;20382;-45
2022/06/29 09:17:06;;;;;;;6.53;4.50;;;30.10;58.40;;;;;;7374715;19;20363;-45
2022/06/29 09:19:46;;;;;;;5.17;4.77;;;30.30;58.80;;;;;;7376049;19;20419;-45
2022/06/29 09:22:16;;;;;;;6.50;4.63;;;30.50;57.70;;;;;;7378785;19;20390;-45
2022/06/29 09:24:48;;;;;;;4.90;4.17;;;30.60;56.90;;;;;;7374642;19;20405;-45
2022/06/29 09:27:18;;;;;;;4.40;4.10;;;30.90;56.70;;;;;;7370753;19;21086;-45
2022/06/29 09:29:48;;;;;;;4.93;4.43;;;31.20;56.40;;;;;;7363961;19;20388;-46
2022/06/29 09:32:21;;;;;;;4.17;3.63;;;31.70;54.40;;;;;;7367156;19;20983;-45
2022/06/29 09:34:52;;;;;;;5.53;4.87;;;32.00;53.60;;;;;;7376097;19;20399;-45
2022/06/29 09:37:23;;;;;;;4.67;4.27;;;32.30;52.50;;;;;;7379073;19;20476;-46
2022/06/29 09:39:58;;;;;;;5.13;4.40;;;32.60;52.00;;;;;;7376706;19;21264;-42
2022/06/29 09:42:29;;;;;;;6.77;3.60;;;33.00;50.60;;;;;;7376526;19;20392;-42
2022/06/29 09:44:58;;;;;;;5.27;4.20;;;33.10;51.80;;;;;;7374708;19;20404;-42
2022/06/29 09:47:31;;;;;;;7.70;4.97;;;33.10;51.30;;;;;;7371767;19;20450;-42
2022/06/29 09:50:02;;;;;;;4.30;3.90;;;32.60;51.40;;;;;;7379679;19;20385;-42
2022/06/29 09:52:32;;;;;;;6.00;3.90;;;32.00;52.80;;;;;;7367811;19;20379;-42
2022/06/29 09:55:06;;;;;;;8.50;4.30;;;31.50;53.70;;;;;;7349519;19;20383;-42
2022/06/29 09:57:38;;;;;;;4.30;3.90;;;31.20;54.60;;;;;;7376911;19;20397;-42
2022/06/29 10:02:52;;;;;;;11.70;5.87;;;30.10;56.90;;;;;;7375133;19;20403;-42
2022/06/29 10:05:25;;;;;;;35.90;8.03;;;29.90;57.80;;;;;;7376146;19;20424;-42
2022/06/29 10:07:56;;;;;;;20.80;7.17;;;29.60;58.00;;;;;;7375302;19;20380;-41
2022/06/29 10:10:31;;;;;;;13.43;6.23;;;29.30;59.00;;;;;;7377548;19;20368;-41
2022/06/29 10:16:09;;;;;;;13.57;5.90;;;28.60;59.40;;;;;;7379068;19;20979;-41
2022/06/29 10:18:48;;;;;;;5.90;5.10;;;28.40;59.80;;;;;;7376009;19;20380;-41
2022/06/29 10:21:20;;;;;;;6.40;5.47;;;28.50;60.00;;;;;;7359321;19;21067;-42
2022/06/29 10:23:52;;;;;;;21.43;6.00;;;28.40;60.10;;;;;;7363639;19;20376;-40
2022/06/29 10:26:46;;;;;;;7.70;5.37;;;28.40;60.10;;;;;;7365401;19;20943;-41
2022/06/29 10:29:35;;;;;;;7.10;5.03;;;28.40;61.20;;;;;;7377550;19;20905;-41
2022/06/29 10:32:25;;;;;;;13.73;5.10;;;28.50;61.00;;;;;;7370765;19;20377;-41
2022/06/29 10:35:10;;;;;;;6.40;5.00;;;28.50;60.70;;;;;;7369974;19;20379;-41
2022/06/29 10:37:51;;;;;;;7.40;4.30;;;28.70;59.90;;;;;;7378795;19;20401;-42
2022/06/29 10:40:24;;;;;;;5.70;4.70;;;28.80;60.00;;;;;;7364334;19;20375;-41
2022/06/29 10:43:08;;;;;;;16.60;5.97;;;28.80;59.50;;;;;;7371718;19;20395;-41
2022/06/29 10:45:46;;;;;;;7.93;4.83;;;29.00;59.70;;;;;;7371608;19;20901;-41
2022/06/29 10:48:30;;;;;;;13.40;6.00;;;29.30;59.10;;;;;;7369989;19;20368;-42
2022/06/29 10:51:00;;;;;;;5.70;5.07;;;29.60;57.60;;;;;;7366562;19;20372;-42
2022/06/29 10:53:30;;;;;;;10.17;5.20;;;29.50;57.20;;;;;;7376610;19;20364;-41
2022/06/29 10:55:59;;;;;;;9.20;4.67;;;29.60;57.50;;;;;;7374735;19;20384;-41
2022/06/29 10:58:33;;;;;;;7.37;4.73;;;29.60;57.50;;;;;;7373159;19;20360;-42
2022/06/29 11:01:03;;;;;;;7.17;4.90;;;29.70;57.60;;;;;;7373841;19;20412;-42
2022/06/29 11:03:32;;;;;;;4.17;3.70;;;29.60;58.40;;;;;;7369992;19;20384;-41
2022/06/29 11:16:57;;;;;;;9.17;6.90;;;29.50;57.40;;;;;;7376312;19;20420;-45
2022/06/29 11:19:36;;;;;;;7.07;5.27;;;29.30;58.00;;;;;;7366592;19;20444;-45
2022/06/29 11:22:13;;;;;;;6.90;4.60;;;29.30;57.70;;;;;;7371222;19;20391;-44
2022/06/29 11:25:00;;;;;;;7.80;4.80;;;29.30;58.60;;;;;;7373055;19;20817;-45
2022/06/29 11:27:38;;;;;;;6.80;5.27;;;29.60;58.00;;;;;;7369317;19;21235;-45
2022/06/29 11:30:13;;;;;;;7.37;4.23;;;29.40;58.60;;;;;;7365970;19;21014;-45
2022/06/29 11:32:44;;;;;;;5.80;4.87;;;29.50;58.60;;;;;;7373982;19;20366;-45
2022/06/29 11:35:17;;;;;;;6.10;3.97;;;29.80;57.70;;;;;;7365920;19;20381;-46
2022/06/29 11:37:50;;;;;;;10.87;4.80;;;30.70;56.60;;;;;;7372630;19;20371;-45
2022/06/29 11:40:33;;;;;;;7.63;4.77;;;31.30;54.60;;;;;;7364398;19;20408;-45
2022/06/29 11:43:08;;;;;;;5.60;3.87;;;31.20;53.50;;;;;;7365937;19;20939;-45
2022/06/29 11:45:46;;;;;;;4.63;3.83;;;30.80;54.30;;;;;;7367082;19;20458;-44
2022/06/29 11:48:18;;;;;;;6.33;4.20;;;30.60;55.00;;;;;;7367384;19;20495;-44
2022/06/29 11:50:51;;;;;;;7.03;4.57;;;30.50;56.10;;;;;;7370363;19;20412;-46
2022/06/29 11:53:43;;;;;;;3.53;3.13;;;30.80;55.10;;;;;;7369992;19;20476;-45
2022/06/29 11:56:16;;;;;;;6.07;3.63;;;31.70;53.00;;;;;;7376249;19;20904;-45
2022/06/29 11:58:50;;;;;;;4.43;4.03;;;31.70;52.20;;;;;;7352236;19;20407;-45
2022/06/29 12:01:26;;;;;;;5.90;4.20;;;32.60;50.70;;;;;;7366907;19;20379;-45
2022/06/29 12:03:57;;;;;;;4.37;3.97;;;33.50;48.50;;;;;;7365624;19;20415;-45
2022/06/29 12:06:28;;;;;;;4.57;3.90;;;33.60;47.20;;;;;;7366783;19;21267;-44
2022/06/29 12:08:58;;;;;;;6.90;4.40;;;33.30;48.10;;;;;;7361208;19;20372;-44
2022/06/29 12:11:28;;;;;;;4.17;3.57;;;32.90;48.60;;;;;;7369525;19;20721;-46
2022/06/29 12:13:58;;;;;;;8.57;3.90;;;32.80;49.20;;;;;;7372843;19;20499;-45
2022/06/29 12:16:30;;;;;;;4.23;3.83;;;33.10;48.70;;;;;;7370578;19;20412;-45
2022/06/29 12:18:59;;;;;;;5.40;3.80;;;34.10;46.90;;;;;;7367617;19;20384;-42
2022/06/29 12:21:29;;;;;;;4.53;2.90;;;35.80;44.30;;;;;;7375031;19;20478;-43
2022/06/29 12:24:01;;;;;;;3.87;3.27;;;37.00;42.70;;;;;;7380307;19;20428;-43
2022/06/29 12:26:33;;;;;;;3.70;3.40;;;38.20;39.90;;;;;;7381195;19;20380;-43
2022/06/29 12:29:02;;;;;;;5.50;2.90;;;38.40;39.50;;;;;;7379746;19;20395;-43
2022/06/29 12:31:34;;;;;;;4.30;3.90;;;38.80;37.50;;;;;;7369462;19;20416;-43
2022/06/29 12:34:04;;;;;;;3.47;2.80;;;39.80;36.50;;;;;;7380779;19;20422;-43
2022/06/29 12:36:33;;;;;;;3.17;2.87;;;39.20;36.60;;;;;;7380932;19;21309;-43
2022/06/29 12:39:03;;;;;;;4.13;2.83;;;38.10;37.40;;;;;;7380170;19;20415;-43
2022/06/29 12:41:33;;;;;;;4.83;3.10;;;36.30;40.70;;;;;;7379377;19;20391;-43
2022/06/29 12:44:03;;;;;;;3.87;3.07;;;35.40;41.90;;;;;;7369593;19;20416;-42
2022/06/29 12:46:38;;;;;;;3.60;3.30;;;34.60;43.20;;;;;;7372544;19;20417;-42
2022/06/29 12:49:08;;;;;;;4.60;2.63;;;34.00;43.90;;;;;;7369540;19;20495;-42
2022/06/29 12:51:38;;;;;;;9.90;4.40;;;33.80;45.20;;;;;;7350032;19;20412;-42
2022/06/29 12:54:07;;;;;;;3.73;2.97;;;34.80;43.40;;;;;;7361214;19;21627;-43
2022/06/29 12:56:37;;;;;;;10.83;3.90;;;35.30;42.30;;;;;;7359993;19;20725;-43
2022/06/29 12:59:08;;;;;;;4.70;3.23;;;35.30;42.00;;;;;;7365927;19;20412;-43
2022/06/29 13:01:40;;;;;;;6.40;3.70;;;35.40;41.50;;;;;;7370223;19;20412;-43
2022/06/29 13:04:10;;;;;;;5.83;3.40;;;35.40;41.50;;;;;;7361337;19;20419;-43
2022/06/29 13:06:42;;;;;;;4.37;3.30;;;36.00;41.40;;;;;;7376422;19;20807;-43
2022/06/29 13:09:12;;;;;;;5.47;3.30;;;36.50;39.50;;;;;;7375794;19;20408;-43
2022/06/29 13:11:41;;;;;;;4.63;2.90;;;36.60;39.70;;;;;;7362707;19;20408;-43
2022/06/29 13:14:11;;;;;;;5.47;3.20;;;37.00;39.90;;;;;;7373655;19;20982;-42
2022/06/29 13:16:43;;;;;;;6.57;2.73;;;37.30;39.30;;;;;;7341889;19;20408;-41
2022/06/29 13:19:13;;;;;;;3.47;3.00;;;38.00;37.90;;;;;;7362805;19;21271;-43
2022/06/29 13:21:42;;;;;;;4.17;3.07;;;39.00;36.10;;;;;;7358983;19;20487;-44
2022/06/29 13:24:14;;;;;;;4.97;3.30;;;38.70;36.90;;;;;;7365292;19;21332;-43
2022/06/29 13:26:43;;;;;;;3.60;2.63;;;39.00;36.10;;;;;;7374326;19;20419;-43
2022/06/29 13:29:13;;;;;;;4.50;3.13;;;38.00;37.10;;;;;;7375086;19;20400;-43
2022/06/29 13:31:45;;;;;;;5.13;3.13;;;37.20;38.70;;;;;;7364637;19;20372;-43
2022/06/29 13:34:15;;;;;;;4.13;3.00;;;36.40;39.70;;;;;;7357852;19;20508;-46